createdAt,value
2022-12-13T00:08:44.556Z,10.30
2022-12-13T00:11:31.429Z,6.00
2022-12-13T00:14:18.097Z,5.10
2022-12-13T00:17:04.590Z,5.30
2022-12-13T00:19:51.316Z,5.60
2022-12-13T00:22:37.836Z,9.10
2022-12-13T00:25:24.570Z,5.70
2022-12-13T00:28:11.327Z,9.90
2022-12-13T00:31:13.071Z,10.30
2022-12-13T00:34:05.808Z,4.60
2022-12-13T00:36:54.164Z,12.50
2022-12-13T00:39:40.244Z,10.30
2022-12-13T00:42:26.773Z,6.50
2022-12-13T00:45:13.544Z,7.50
2022-12-13T00:48:00.465Z,6.80
2022-12-13T00:50:46.645Z,1.70
2022-12-13T00:53:32.994Z,7.60
2022-12-13T00:56:21.844Z,5.60
2022-12-13T00:59:10.017Z,8.50
2022-12-13T01:01:56.617Z,5.00
2022-12-13T01:04:43.511Z,7.60
2022-12-13T01:07:29.647Z,5.60
2022-12-13T01:10:16.262Z,7.50
2022-12-13T01:13:02.849Z,5.00
2022-12-13T01:15:49.355Z,3.30
2022-12-13T01:18:35.779Z,6.20
2022-12-13T01:21:22.347Z,8.50
2022-12-13T01:24:08.853Z,6.70
2022-12-13T01:26:56.973Z,5.60
2022-12-13T01:29:43.582Z,6.70
2022-12-13T01:32:30.249Z,2.80
2022-12-13T01:35:17.069Z,3.70
2022-12-13T01:38:03.327Z,6.60
2022-12-13T01:41:02.147Z,6.90
2022-12-13T01:44:04.403Z,4.00
2022-12-13T01:46:50.969Z,7.60
2022-12-13T01:49:37.362Z,3.90
2022-12-13T01:52:23.939Z,5.80
2022-12-13T01:55:10.143Z,4.30
2022-12-13T01:57:58.240Z,5.00
2022-12-13T02:00:44.541Z,6.20
2022-12-13T02:03:30.823Z,3.10
2022-12-13T02:06:28.501Z,3.60
2022-12-13T02:09:14.960Z,7.20
2022-12-13T02:12:01.446Z,5.80
2022-12-13T02:14:47.761Z,8.50
2022-12-13T02:18:05.126Z,3.80
2022-12-13T02:21:14.255Z,2.90
2022-12-13T02:24:16.352Z,7.30
2022-12-13T02:27:30.725Z,6.80
2022-12-13T02:30:20.969Z,5.80
2022-12-13T02:33:21.974Z,7.20
2022-12-13T02:36:19.600Z,5.10
2022-12-13T02:39:15.382Z,7.40
2022-12-13T02:42:29.733Z,5.50
2022-12-13T02:45:21.076Z,6.80
2022-12-13T02:48:08.433Z,7.90
2022-12-13T02:50:55.009Z,1.90
2022-12-13T02:53:42.258Z,5.60
2022-12-13T02:56:28.474Z,5.50
2022-12-13T02:59:14.756Z,5.50
2022-12-13T03:02:31.133Z,4.40
2022-12-13T03:05:46.351Z,2.00
2022-12-13T03:08:41.932Z,7.40
2022-12-13T03:11:29.375Z,6.10
2022-12-13T03:14:20.222Z,5.70
2022-12-13T03:17:06.743Z,8.10
2022-12-13T03:19:53.725Z,6.70
2022-12-13T03:22:40.060Z,4.70
2022-12-13T03:25:31.862Z,7.50
2022-12-13T03:28:18.901Z,6.30
2022-12-13T03:31:05.835Z,7.10
2022-12-13T03:33:52.099Z,6.10
2022-12-13T03:36:38.567Z,4.60
2022-12-13T03:39:25.228Z,6.00
2022-12-13T03:42:12.012Z,2.60
2022-12-13T03:44:58.470Z,2.90
2022-12-13T03:47:44.660Z,6.80
2022-12-13T03:50:30.816Z,5.20
2022-12-13T03:53:22.962Z,7.10
2022-12-13T03:56:19.119Z,9.60
2022-12-13T03:59:05.599Z,4.50
2022-12-13T04:01:52.432Z,9.50
2022-12-13T04:04:38.817Z,5.10
2022-12-13T04:07:25.248Z,5.70
2022-12-13T04:10:25.859Z,2.20
2022-12-13T04:13:31.473Z,6.40
2022-12-13T04:16:17.578Z,2.50
2022-12-13T04:19:04.300Z,9.80
2022-12-13T04:21:52.114Z,2.40
2022-12-13T04:24:38.526Z,6.10
2022-12-13T04:27:24.949Z,6.10
2022-12-13T04:30:11.880Z,6.60
2022-12-13T04:32:58.130Z,6.30
2022-12-13T04:35:44.814Z,3.90
2022-12-13T04:38:30.845Z,5.90
2022-12-13T04:41:18.662Z,6.60
2022-12-13T04:44:06.516Z,6.60
2022-12-13T04:47:13.100Z,10.70
2022-12-13T04:49:59.382Z,9.10
2022-12-13T04:52:45.571Z,4.20
2022-12-13T04:55:32.197Z,10.50
2022-12-13T04:58:23.000Z,7.00
2022-12-13T05:03:56.317Z,7.30
2022-12-13T05:06:42.972Z,9.20
2022-12-13T05:09:29.616Z,0.80
2022-12-13T05:12:23.269Z,10.40
2022-12-13T05:15:10.344Z,7.60
2022-12-13T05:18:01.877Z,7.60
2022-12-13T05:20:57.370Z,10.10
2022-12-13T05:23:43.996Z,5.50
2022-12-13T05:26:30.576Z,8.20
2022-12-13T05:29:17.341Z,7.80
2022-12-13T05:32:04.474Z,6.00
2022-12-13T05:34:51.166Z,8.60
2022-12-13T05:37:37.298Z,7.60
2022-12-13T05:40:24.411Z,5.20
2022-12-13T05:43:21.454Z,6.20
2022-12-13T05:46:08.827Z,7.20
2022-12-13T05:48:55.336Z,6.10
2022-12-13T05:51:41.451Z,9.60
2022-12-13T05:54:27.835Z,8.70
2022-12-13T05:57:15.394Z,8.70
2022-12-13T06:00:02.236Z,6.90
2022-12-13T06:02:48.994Z,6.00
2022-12-13T06:05:35.629Z,5.50
2022-12-13T06:08:24.062Z,8.30
2022-12-13T06:11:12.501Z,6.50
2022-12-13T06:14:22.411Z,5.60
2022-12-13T06:17:09.715Z,12.80
2022-12-13T06:19:56.105Z,9.60
2022-12-13T06:22:42.813Z,8.70
2022-12-13T06:25:31.302Z,5.70
2022-12-13T06:28:18.358Z,7.80
2022-12-13T06:31:05.322Z,8.10
2022-12-13T06:33:52.043Z,6.60
2022-12-13T06:36:38.513Z,9.90
2022-12-13T06:39:25.121Z,2.30
2022-12-13T06:42:21.852Z,10.40
2022-12-13T06:45:09.060Z,8.70
2022-12-13T06:47:56.012Z,8.10
2022-12-13T06:50:42.376Z,6.90
2022-12-13T06:53:28.774Z,7.80
2022-12-13T06:56:15.435Z,6.90
2022-12-13T06:59:02.471Z,9.00
2022-12-13T07:01:50.747Z,9.50
2022-12-13T07:04:37.096Z,8.30
2022-12-13T07:07:24.719Z,8.00
2022-12-13T07:10:21.535Z,13.10
2022-12-13T07:13:08.767Z,11.50
2022-12-13T07:15:55.281Z,11.60
2022-12-13T07:18:47.683Z,12.00
2022-12-13T07:21:36.335Z,10.00
2022-12-13T07:24:22.519Z,11.30
2022-12-13T07:27:09.226Z,12.40
2022-12-13T07:29:56.139Z,9.60
2022-12-13T07:32:42.700Z,8.80
2022-12-13T07:35:29.476Z,7.90
2022-12-13T07:38:16.040Z,9.30
2022-12-13T07:41:02.476Z,9.80
2022-12-13T07:43:48.894Z,14.00
2022-12-13T07:46:41.711Z,8.00
2022-12-13T07:49:28.147Z,11.10
2022-12-13T07:52:14.835Z,4.70
2022-12-13T07:55:01.120Z,8.30
2022-12-13T07:57:47.732Z,10.80
2022-12-13T08:00:34.222Z,7.90
2022-12-13T08:03:20.924Z,4.60
2022-12-13T08:06:12.154Z,10.10
2022-12-13T08:08:58.879Z,18.20
2022-12-13T08:11:45.317Z,11.90
2022-12-13T08:14:31.875Z,15.30
2022-12-13T08:17:18.607Z,8.80
2022-12-13T08:20:05.624Z,11.30
2022-12-13T08:23:02.023Z,6.60
2022-12-13T08:25:53.372Z,9.30
2022-12-13T08:28:40.088Z,6.90
2022-12-13T08:31:26.741Z,2.00
2022-12-13T08:34:20.399Z,7.00
2022-12-13T08:37:07.230Z,4.60
2022-12-13T08:39:53.557Z,11.00
2022-12-13T08:42:40.308Z,6.40
2022-12-13T08:45:27.400Z,10.20
2022-12-13T08:48:13.829Z,7.90
2022-12-13T08:51:02.020Z,6.70
2022-12-13T08:53:48.174Z,13.10
2022-12-13T08:56:34.559Z,10.70
2022-12-13T08:59:24.411Z,7.40
2022-12-13T09:02:14.606Z,10.40
2022-12-13T09:05:00.921Z,7.80
2022-12-13T09:07:47.269Z,8.10
2022-12-13T09:10:38.183Z,9.50
2022-12-13T09:13:31.672Z,14.00
2022-12-13T09:16:23.343Z,6.50
2022-12-13T09:19:24.942Z,7.90
2022-12-13T09:22:14.669Z,9.10
2022-12-13T09:25:03.093Z,7.50
2022-12-13T09:27:49.521Z,10.50
2022-12-13T09:30:36.888Z,6.20
2022-12-13T09:33:30.748Z,8.60
2022-12-13T09:36:19.405Z,6.40
2022-12-13T09:39:05.925Z,7.20
2022-12-13T09:42:00.920Z,11.10
2022-12-13T09:45:02.341Z,9.00
2022-12-13T09:47:50.173Z,9.00
2022-12-13T09:50:38.554Z,4.60
2022-12-13T09:53:33.551Z,5.70
2022-12-13T09:56:20.902Z,4.90
2022-12-13T09:59:11.398Z,3.70
2022-12-13T10:02:02.468Z,5.10
2022-12-13T10:04:48.929Z,7.80
2022-12-13T10:07:35.148Z,4.40
2022-12-13T10:10:24.275Z,3.60
2022-12-13T10:13:15.935Z,7.70
2022-12-13T10:16:06.777Z,6.00
2022-12-13T10:18:53.204Z,11.30
2022-12-13T10:21:41.268Z,10.80
2022-12-13T10:24:36.394Z,9.30
2022-12-13T10:27:35.092Z,7.70
2022-12-13T10:30:28.958Z,9.60
2022-12-13T10:33:26.210Z,7.00
2022-12-13T10:36:30.000Z,7.30
2022-12-13T10:39:37.695Z,6.80
2022-12-13T10:42:29.104Z,5.60
2022-12-13T10:45:23.629Z,5.80
2022-12-13T10:48:19.202Z,9.00
2022-12-13T10:54:01.732Z,5.10
2022-12-13T10:56:49.242Z,7.80
2022-12-13T10:59:37.215Z,4.40
2022-12-13T11:02:32.635Z,4.50
2022-12-13T11:05:25.246Z,5.80
2022-12-13T11:08:16.188Z,5.50
2022-12-13T11:13:53.923Z,6.90
2022-12-13T11:16:40.730Z,3.40
2022-12-13T11:19:35.232Z,8.10
2022-12-13T11:22:32.343Z,4.50
2022-12-13T11:25:26.232Z,9.00
2022-12-13T11:28:25.654Z,5.10
2022-12-13T11:31:23.376Z,4.80
2022-12-13T11:34:24.528Z,7.40
2022-12-13T11:37:14.137Z,4.70
2022-12-13T11:40:05.939Z,4.70
2022-12-13T11:43:15.642Z,6.90
2022-12-13T11:46:04.916Z,3.70
2022-12-13T11:48:54.075Z,18.50
2022-12-13T11:51:43.300Z,12.10
2022-12-13T11:54:50.691Z,4.30
2022-12-13T11:57:46.533Z,8.20
2022-12-13T12:00:40.455Z,7.60
2022-12-13T12:03:43.477Z,4.60
2022-12-13T12:06:32.943Z,5.20
2022-12-13T12:09:19.413Z,5.00
2022-12-13T12:12:13.190Z,6.20
2022-12-13T12:15:26.517Z,3.80
2022-12-13T12:18:16.602Z,6.90
2022-12-13T12:21:18.229Z,4.20
2022-12-13T12:24:28.562Z,3.10
2022-12-13T12:27:22.390Z,5.20
2022-12-13T12:30:22.884Z,4.40
2022-12-13T12:33:52.096Z,6.50
2022-12-13T12:36:50.762Z,4.30
2022-12-13T12:39:55.671Z,4.70
2022-12-13T12:43:15.874Z,7.80
2022-12-13T12:46:21.228Z,6.00
2022-12-13T12:49:16.934Z,5.80
2022-12-13T12:52:09.227Z,7.10
2022-12-13T12:55:04.748Z,9.20
2022-12-13T12:58:05.722Z,8.00
2022-12-13T13:01:04.191Z,5.30
2022-12-13T13:03:50.428Z,6.60
2022-12-13T13:06:39.756Z,7.90
2022-12-13T13:09:26.170Z,8.80
2022-12-13T13:12:29.307Z,6.80
2022-12-13T13:15:32.727Z,5.30
2022-12-13T13:18:51.084Z,5.60
2022-12-13T13:21:50.699Z,9.60
2022-12-13T13:24:37.020Z,7.40
2022-12-13T13:27:30.135Z,3.10
2022-12-13T13:30:16.723Z,4.60
2022-12-13T13:33:03.425Z,6.10
2022-12-13T13:35:50.278Z,3.10
2022-12-13T13:38:50.995Z,6.50
2022-12-13T13:41:41.812Z,6.40
2022-12-13T13:44:48.179Z,5.20
2022-12-13T13:47:38.973Z,5.10
2022-12-13T13:50:46.665Z,8.90
2022-12-13T13:53:57.151Z,8.50
2022-12-13T13:57:08.323Z,5.30
2022-12-13T14:00:17.264Z,5.20
2022-12-13T14:03:33.865Z,3.90
2022-12-13T14:06:35.971Z,6.00
2022-12-13T14:10:00.568Z,8.10
2022-12-13T14:13:02.745Z,10.90
2022-12-13T14:16:21.199Z,2.60
2022-12-13T14:20:02.144Z,5.60
2022-12-13T14:22:54.739Z,3.60
2022-12-13T14:26:10.800Z,5.40
2022-12-13T14:28:59.344Z,5.90
2022-12-13T14:31:47.358Z,5.80
2022-12-13T14:34:33.452Z,8.90
2022-12-13T14:37:30.774Z,5.20
2022-12-13T14:40:26.932Z,8.40
2022-12-13T14:43:27.239Z,11.20
2022-12-13T14:46:15.379Z,9.20
2022-12-13T14:49:06.264Z,10.60
2022-12-13T14:52:01.827Z,12.20
2022-12-13T14:54:57.942Z,12.00
2022-12-13T14:57:51.748Z,11.30
2022-12-13T15:00:39.965Z,13.90
2022-12-13T15:03:27.131Z,12.50
2022-12-13T15:06:13.938Z,14.00
2022-12-13T15:09:00.356Z,13.70
2022-12-13T15:11:46.668Z,14.50
2022-12-13T15:14:33.066Z,13.30
2022-12-13T15:17:36.642Z,15.50
2022-12-13T15:20:25.443Z,14.90
2022-12-13T15:23:15.648Z,17.30
2022-12-13T15:26:08.234Z,16.40
2022-12-13T15:28:58.488Z,17.90
2022-12-13T15:31:48.643Z,27.40
2022-12-13T15:34:36.220Z,19.30
2022-12-13T15:37:31.635Z,24.90
2022-12-13T15:40:17.957Z,20.30
2022-12-13T15:43:04.524Z,20.70
2022-12-13T15:45:51.375Z,18.40
2022-12-13T15:48:42.090Z,16.80
2022-12-13T15:51:34.912Z,16.70
2022-12-13T15:54:21.909Z,19.30
2022-12-13T15:57:16.942Z,21.90
2022-12-13T16:00:04.830Z,19.30
2022-12-13T16:03:00.149Z,18.40
2022-12-13T16:05:55.561Z,19.90
2022-12-13T16:08:42.206Z,21.50
2022-12-13T16:11:38.257Z,18.50
2022-12-13T16:14:27.775Z,17.90
2022-12-13T16:17:20.323Z,17.60
2022-12-13T16:20:14.972Z,19.60
2022-12-13T16:23:01.268Z,21.60
2022-12-13T16:25:55.407Z,22.10
2022-12-13T16:28:41.745Z,21.10
2022-12-13T16:31:35.211Z,29.50
2022-12-13T16:34:26.342Z,26.70
2022-12-13T16:37:26.409Z,21.90
2022-12-13T16:40:28.513Z,42.20
2022-12-13T16:43:19.035Z,47.00
2022-12-13T16:47:18.182Z,41.10
2022-12-13T16:49:24.015Z,46.10
2022-12-13T16:52:10.595Z,59.80
2022-12-13T16:55:00.552Z,64.90
2022-12-13T16:58:17.098Z,70.70
2022-12-13T17:01:11.058Z,61.90
2022-12-13T17:03:57.611Z,56.10
2022-12-13T17:06:44.024Z,69.20
2022-12-13T17:09:30.633Z,43.80
2022-12-13T17:12:16.867Z,45.80
2022-12-13T17:15:03.601Z,62.30
2022-12-13T17:17:50.495Z,46.80
2022-12-13T17:20:36.912Z,45.80
2022-12-13T17:23:23.312Z,53.20
2022-12-13T17:26:10.762Z,60.30
2022-12-13T17:28:57.209Z,37.70
2022-12-13T17:31:44.806Z,37.20
2022-12-13T17:34:31.470Z,40.80
2022-12-13T17:37:17.873Z,36.40
2022-12-13T17:40:07.033Z,55.20
2022-12-13T17:42:53.724Z,53.10
2022-12-13T17:45:43.773Z,49.20
2022-12-13T17:48:37.200Z,41.00
2022-12-13T17:51:25.707Z,44.80
2022-12-13T17:54:12.416Z,47.80
2022-12-13T17:56:58.884Z,38.30
2022-12-13T17:59:45.397Z,52.40
2022-12-13T18:02:31.606Z,52.80
2022-12-13T18:05:18.330Z,53.00
2022-12-13T18:08:04.787Z,56.10
2022-12-13T18:11:15.649Z,40.10
2022-12-13T18:14:02.493Z,24.40
2022-12-13T18:16:49.096Z,29.70
2022-12-13T18:19:35.746Z,63.40
2022-12-13T18:22:22.033Z,56.80
2022-12-13T18:25:09.087Z,34.90
2022-12-13T18:28:00.631Z,49.90
2022-12-13T18:30:47.699Z,59.50
2022-12-13T18:33:34.403Z,64.70
2022-12-13T18:36:22.115Z,67.40
2022-12-13T18:39:08.511Z,21.80
2022-12-13T18:41:54.828Z,74.00
2022-12-13T18:44:41.508Z,91.80
2022-12-13T18:47:40.374Z,100.40
2022-12-13T18:50:27.199Z,83.10
2022-12-13T18:53:14.283Z,105.80
2022-12-13T18:56:17.842Z,123.30
2022-12-13T18:59:05.813Z,49.60
2022-12-13T19:01:52.198Z,71.70
2022-12-13T19:04:39.181Z,116.40
2022-12-13T19:07:25.488Z,129.00
2022-12-13T19:10:12.275Z,103.30
2022-12-13T19:12:59.175Z,104.60
2022-12-13T19:15:47.769Z,123.40
2022-12-13T19:18:34.430Z,117.60
2022-12-13T19:21:21.348Z,72.00
2022-12-13T19:24:10.934Z,47.20
2022-12-13T19:26:57.861Z,74.30
2022-12-13T19:29:44.738Z,61.50
2022-12-13T19:32:31.438Z,104.60
2022-12-13T19:35:18.103Z,95.70
2022-12-13T19:38:04.564Z,113.60
2022-12-13T19:40:51.670Z,90.70
2022-12-13T19:43:38.230Z,87.00
2022-12-13T19:46:24.879Z,69.70
2022-12-13T19:49:14.282Z,77.90
2022-12-13T19:52:00.974Z,85.50
2022-12-13T19:54:47.481Z,106.20
2022-12-13T19:57:34.053Z,111.20
2022-12-13T20:00:20.889Z,66.70
2022-12-13T20:03:07.245Z,69.40
2022-12-13T20:06:00.100Z,78.60
2022-12-13T20:08:46.772Z,69.60
2022-12-13T20:11:33.076Z,56.10
2022-12-13T20:14:19.730Z,61.40
2022-12-13T20:17:06.542Z,45.80
2022-12-13T20:19:53.296Z,52.50
2022-12-13T20:22:39.921Z,33.00
2022-12-13T20:25:26.613Z,44.00
2022-12-13T20:28:16.201Z,43.50
2022-12-13T20:31:10.207Z,44.10
2022-12-13T20:34:16.948Z,55.70
2022-12-13T20:37:03.314Z,69.30
2022-12-13T20:39:49.715Z,53.20
2022-12-13T20:42:36.200Z,46.30
2022-12-13T20:45:22.599Z,40.20
2022-12-13T20:48:09.012Z,51.20
2022-12-13T20:51:01.800Z,41.90
2022-12-13T20:53:48.928Z,23.60
2022-12-13T20:56:36.848Z,13.30
2022-12-13T20:59:23.882Z,28.10
2022-12-13T21:02:10.963Z,31.30
2022-12-13T21:04:57.560Z,46.50
2022-12-13T21:08:02.814Z,45.40
2022-12-13T21:10:49.645Z,20.00
2022-12-13T21:13:36.176Z,26.40
2022-12-13T21:16:24.004Z,39.60
2022-12-13T21:19:14.227Z,7.30
2022-12-13T21:22:00.628Z,22.60
2022-12-13T21:24:47.161Z,35.60
2022-12-13T21:27:33.639Z,38.20
2022-12-13T21:30:20.100Z,19.70
2022-12-13T21:33:06.694Z,35.10
2022-12-13T21:35:52.978Z,48.40
2022-12-13T21:38:39.220Z,44.60
2022-12-13T21:41:25.692Z,38.80
2022-12-13T21:44:13.069Z,35.90
2022-12-13T21:47:14.833Z,44.30
2022-12-13T21:50:01.495Z,43.20
2022-12-13T21:52:49.764Z,51.40
2022-12-13T21:55:42.868Z,45.50
2022-12-13T21:58:55.912Z,42.50
2022-12-13T22:02:05.100Z,42.60
2022-12-13T22:04:53.194Z,39.20
2022-12-13T22:07:39.307Z,45.00
2022-12-13T22:10:25.810Z,31.60
2022-12-13T22:13:12.205Z,40.90
2022-12-13T22:15:58.353Z,24.30
2022-12-13T22:18:44.769Z,44.30
2022-12-13T22:21:31.641Z,38.30
2022-12-13T22:24:18.528Z,50.00
2022-12-13T22:27:05.103Z,50.80
2022-12-13T22:29:56.842Z,52.40
2022-12-13T22:32:43.680Z,41.20
2022-12-13T22:35:29.894Z,44.40
2022-12-13T22:38:16.574Z,46.90
2022-12-13T22:41:03.687Z,42.30
2022-12-13T22:43:49.867Z,43.70
2022-12-13T22:46:36.322Z,41.50
2022-12-13T22:49:23.527Z,33.50
2022-12-13T22:52:09.855Z,35.70
2022-12-13T22:54:56.709Z,39.00
2022-12-13T22:57:43.372Z,41.90
2022-12-13T23:00:35.352Z,36.20
2022-12-13T23:03:21.925Z,32.70
2022-12-13T23:06:09.859Z,41.40
2022-12-13T23:09:00.284Z,44.00
2022-12-13T23:12:04.889Z,40.90
2022-12-13T23:14:51.608Z,48.00
2022-12-13T23:17:37.845Z,35.50
2022-12-13T23:20:24.644Z,35.90
2022-12-13T23:23:10.841Z,39.30
2022-12-13T23:25:57.220Z,44.90
2022-12-13T23:28:44.427Z,57.30
2022-12-13T23:31:31.885Z,53.70
2022-12-13T23:34:18.465Z,58.20
2022-12-13T23:37:04.829Z,17.20
2022-12-13T23:39:51.186Z,28.50
2022-12-13T23:42:37.475Z,43.20
2022-12-13T23:45:24.762Z,50.70
2022-12-13T23:48:11.067Z,9.00
2022-12-13T23:50:57.393Z,52.80
2022-12-13T23:53:44.185Z,34.60
2022-12-13T23:56:30.550Z,48.20
2022-12-13T23:59:17.096Z,42.00
